Time;durP1;ratioP1;P1;durP2;ratioP2;P2;SDS_P1;SDS_P2;PMS_P1;PMS_P2;Temp;Humidity;BMP_temperature;BMP_pressure;BME280_temperature;BME280_humidity;BME280_pressure;Samples;Min_cycle;Max_cycle;Signal;HPM_P1;HPM_P2
2023/10/25 00:01:13;;;;;;;2.70;1.80;;;;;;;;;;5034111;28;20083;-84
2023/10/25 00:03:58;;;;;;;2.95;2.20;;;;;;;;;;5034729;28;20079;-84
2023/10/25 00:06:44;;;;;;;3.85;2.17;;;;;;;;;;5045244;28;20107;-83
2023/10/25 00:09:29;;;;;;;4.60;2.30;;;;;;;;;;5041649;28;20021;-83
2023/10/25 00:12:14;;;;;;;3.58;1.92;;;;;;;;;;5036262;28;20154;-84
2023/10/25 00:15:00;;;;;;;4.97;2.33;;;;;;;;;;5042730;28;20621;-83
2023/10/25 00:17:45;;;;;;;7.30;2.03;;;;;;;;;;5034200;28;20029;-84
2023/10/25 00:20:30;;;;;;;6.57;2.45;;;;;;;;;;5036794;28;20033;-84
2023/10/25 00:23:15;;;;;;;2.47;1.73;;;;;;;;;;5043819;28;20162;-84
2023/10/25 00:26:01;;;;;;;2.35;1.63;;;;;;;;;;5042711;28;20472;-83
2023/10/25 00:28:46;;;;;;;2.67;1.75;;;;;;;;;;5039626;28;20510;-84
2023/10/25 00:31:31;;;;;;;2.95;1.75;;;;;;;;;;5038038;28;20040;-84
2023/10/25 00:34:16;;;;;;;3.55;1.75;;;;;;;;;;5016646;28;20029;-85
2023/10/25 00:37:01;;;;;;;4.35;1.70;;;;;;;;;;5017621;28;20415;-84
2023/10/25 00:39:47;;;;;;;2.20;1.35;;;;;;;;;;5018257;28;20036;-85
2023/10/25 00:42:33;;;;;;;3.00;1.75;;;;;;;;;;5026543;28;20055;-84
2023/10/25 00:45:18;;;;;;;3.80;2.22;;;;;;;;;;5021486;28;20017;-85
2023/10/25 00:48:03;;;;;;;5.05;2.08;;;;;;;;;;5030499;28;20178;-83
2023/10/25 00:50:48;;;;;;;5.68;2.53;;;;;;;;;;5019937;28;20484;-84
2023/10/25 00:53:35;;;;;;;2.38;2.17;;;;;;;;;;5019703;28;20040;-83
2023/10/25 00:56:24;;;;;;;3.30;2.20;;;;;;;;;;5023913;28;20499;-82
2023/10/25 00:59:10;;;;;;;2.17;1.88;;;;;;;;;;5017190;28;20033;-83
2023/10/25 01:01:56;;;;;;;4.55;2.72;;;;;;;;;;5024159;28;20104;-84
2023/10/25 01:04:41;;;;;;;5.45;2.53;;;;;;;;;;5027910;28;20025;-84
2023/10/25 01:07:27;;;;;;;3.15;2.30;;;;;;;;;;5016784;28;20056;-84
2023/10/25 01:10:12;;;;;;;3.17;2.05;;;;;;;;;;5016425;28;20529;-84
2023/10/25 01:12:57;;;;;;;2.85;2.30;;;;;;;;;;5017554;28;20469;-85
2023/10/25 01:15:42;;;;;;;6.15;2.03;;;;;;;;;;5016888;28;20602;-85
2023/10/25 01:18:27;;;;;;;3.22;2.30;;;;;;;;;;5003399;28;20479;-84
2023/10/25 01:21:13;;;;;;;3.10;2.33;;;;;;;;;;5017196;28;20029;-84
2023/10/25 01:23:58;;;;;;;4.25;2.58;;;;;;;;;;5018406;28;20116;-84
2023/10/25 01:26:43;;;;;;;4.25;1.98;;;;;;;;;;5027157;28;20052;-84
2023/10/25 01:29:29;;;;;;;4.85;2.35;;;;;;;;;;5018056;28;20025;-83
2023/10/25 01:32:14;;;;;;;4.05;1.73;;;;;;;;;;5027458;28;20403;-85
2023/10/25 01:34:59;;;;;;;2.33;2.13;;;;;;;;;;5035727;28;20490;-84
2023/10/25 01:37:44;;;;;;;4.60;2.00;;;;;;;;;;5039361;28;20028;-84
2023/10/25 01:40:29;;;;;;;3.35;1.73;;;;;;;;;;5039611;28;20059;-85
2023/10/25 01:43:15;;;;;;;4.05;2.13;;;;;;;;;;5034513;28;20028;-84
2023/10/25 01:46:02;;;;;;;2.95;2.10;;;;;;;;;;5038971;28;20086;-85
2023/10/25 01:48:47;;;;;;;5.35;2.60;;;;;;;;;;5035627;28;20040;-84
2023/10/25 01:51:32;;;;;;;1.67;1.58;;;;;;;;;;5021271;28;20028;-85
2023/10/25 01:54:18;;;;;;;2.67;2.15;;;;;;;;;;5037135;28;20475;-84
2023/10/25 01:57:03;;;;;;;5.63;2.45;;;;;;;;;;5044264;28;20028;-84
2023/10/25 01:59:49;;;;;;;3.92;2.13;;;;;;;;;;5034905;28;20059;-84
2023/10/25 02:02:34;;;;;;;4.00;2.28;;;;;;;;;;5034772;28;20024;-82
2023/10/25 02:05:19;;;;;;;4.40;2.60;;;;;;;;;;5035108;28;20029;-83
2023/10/25 02:08:04;;;;;;;9.65;2.83;;;;;;;;;;5035530;28;20040;-83
2023/10/25 02:10:50;;;;;;;3.78;2.13;;;;;;;;;;5038946;28;20380;-84
2023/10/25 02:13:35;;;;;;;4.72;2.28;;;;;;;;;;5034867;28;20025;-84
2023/10/25 02:16:23;;;;;;;7.40;2.78;;;;;;;;;;5033395;28;20468;-82
2023/10/25 02:19:08;;;;;;;4.40;2.30;;;;;;;;;;5031435;28;20055;-83
2023/10/25 02:21:53;;;;;;;3.60;2.20;;;;;;;;;;5035252;28;20495;-84
2023/10/25 02:24:39;;;;;;;3.78;2.28;;;;;;;;;;5045102;28;20055;-85
2023/10/25 02:27:24;;;;;;;3.47;2.28;;;;;;;;;;5034390;28;20033;-84
2023/10/25 02:30:09;;;;;;;3.78;2.20;;;;;;;;;;5033539;28;20036;-82
2023/10/25 02:32:55;;;;;;;3.25;2.28;;;;;;;;;;5040962;28;20256;-84
2023/10/25 02:35:40;;;;;;;4.10;2.15;;;;;;;;;;5041310;28;20369;-84
2023/10/25 02:38:25;;;;;;;3.35;2.17;;;;;;;;;;5038692;28;20036;-84
2023/10/25 02:41:10;;;;;;;5.05;2.63;;;;;;;;;;5046947;28;20017;-83
2023/10/25 02:43:56;;;;;;;3.28;2.45;;;;;;;;;;5046295;28;20017;-83
2023/10/25 02:46:41;;;;;;;4.65;3.00;;;;;;;;;;5038015;28;20081;-82
2023/10/25 02:49:27;;;;;;;3.38;2.20;;;;;;;;;;5042180;28;20032;-82
2023/10/25 02:52:12;;;;;;;3.72;1.95;;;;;;;;;;5043556;28;20376;-83
2023/10/25 02:54:57;;;;;;;3.55;1.98;;;;;;;;;;5047298;28;20472;-83
2023/10/25 02:57:42;;;;;;;5.40;2.10;;;;;;;;;;5036575;28;20028;-83
2023/10/25 03:00:27;;;;;;;3.95;2.15;;;;;;;;;;5040428;28;20157;-82
2023/10/25 03:03:13;;;;;;;3.30;2.05;;;;;;;;;;5032439;28;20029;-83
2023/10/25 03:05:58;;;;;;;4.13;2.63;;;;;;;;;;5035547;28;20028;-82
2023/10/25 03:08:43;;;;;;;5.60;1.90;;;;;;;;;;5047656;28;20071;-82
2023/10/25 03:11:29;;;;;;;3.28;2.13;;;;;;;;;;5041443;28;20025;-83
2023/10/25 03:14:14;;;;;;;7.10;2.58;;;;;;;;;;5045138;28;20016;-83
2023/10/25 03:16:59;;;;;;;4.38;2.53;;;;;;;;;;5043303;28;20036;-82
2023/10/25 03:19:45;;;;;;;3.25;2.40;;;;;;;;;;5049513;28;20036;-82
2023/10/25 03:22:31;;;;;;;2.88;2.13;;;;;;;;;;5060407;28;20024;-82
2023/10/25 03:25:16;;;;;;;3.90;2.65;;;;;;;;;;5051129;28;20035;-82
2023/10/25 03:28:01;;;;;;;3.63;2.30;;;;;;;;;;5043236;28;20029;-81
2023/10/25 03:30:47;;;;;;;4.38;2.97;;;;;;;;;;5036980;28;20029;-83
2023/10/25 03:33:32;;;;;;;4.80;2.30;;;;;;;;;;5044236;28;20037;-85
2023/10/25 03:36:17;;;;;;;5.82;2.60;;;;;;;;;;5045890;28;20036;-84
2023/10/25 03:39:03;;;;;;;3.90;2.70;;;;;;;;;;5040407;28;20025;-85
2023/10/25 03:41:48;;;;;;;3.70;2.33;;;;;;;;;;5038072;28;20021;-85
2023/10/25 03:44:33;;;;;;;6.18;2.20;;;;;;;;;;5048726;28;20117;-84
2023/10/25 03:47:18;;;;;;;4.28;2.17;;;;;;;;;;5045692;28;20028;-87
2023/10/25 03:50:04;;;;;;;4.32;2.22;;;;;;;;;;5044424;28;20089;-85
2023/10/25 03:52:50;;;;;;;3.95;2.17;;;;;;;;;;5039446;28;20040;-85
2023/10/25 03:55:35;;;;;;;5.20;2.42;;;;;;;;;;5041842;28;20464;-85
2023/10/25 03:58:20;;;;;;;4.72;2.40;;;;;;;;;;5024422;28;20511;-85
2023/10/25 04:01:06;;;;;;;3.88;2.70;;;;;;;;;;5038293;28;20024;-86
2023/10/25 04:03:51;;;;;;;3.88;2.38;;;;;;;;;;5033845;28;20021;-85
2023/10/25 04:06:37;;;;;;;3.95;2.67;;;;;;;;;;5033120;28;20507;-85
2023/10/25 04:09:22;;;;;;;5.78;2.80;;;;;;;;;;5034732;28;20028;-84
2023/10/25 04:12:12;;;;;;;3.78;2.40;;;;;;;;;;5043529;28;20036;-85
2023/10/25 04:14:57;;;;;;;7.10;2.45;;;;;;;;;;5050553;28;20040;-85
2023/10/25 04:17:42;;;;;;;4.90;2.65;;;;;;;;;;5039460;28;20044;-85
2023/10/25 04:20:32;;;;;;;4.53;3.00;;;;;;;;;;5047903;28;20086;-85
2023/10/25 04:23:18;;;;;;;5.38;2.72;;;;;;;;;;5053018;28;20442;-84
2023/10/25 04:26:03;;;;;;;2.80;2.15;;;;;;;;;;5038205;28;20495;-84
2023/10/25 04:28:48;;;;;;;4.10;2.40;;;;;;;;;;5039361;28;20330;-85
2023/10/25 04:31:33;;;;;;;4.65;2.90;;;;;;;;;;5050718;28;20045;-85
2023/10/25 04:34:19;;;;;;;5.22;3.70;;;;;;;;;;5044040;28;20017;-86
2023/10/25 04:37:04;;;;;;;5.95;3.28;;;;;;;;;;5042308;28;20226;-83
2023/10/25 04:39:49;;;;;;;5.50;3.05;;;;;;;;;;5037588;28;20372;-84
2023/10/25 04:42:35;;;;;;;4.93;3.00;;;;;;;;;;5046019;28;20036;-84
2023/10/25 04:45:20;;;;;;;4.15;2.88;;;;;;;;;;5038577;28;20029;-85
2023/10/25 04:48:05;;;;;;;3.55;2.42;;;;;;;;;;5039121;28;20557;-82
2023/10/25 04:50:51;;;;;;;7.53;3.20;;;;;;;;;;5033950;28;20029;-84
2023/10/25 04:53:36;;;;;;;5.00;3.40;;;;;;;;;;5035950;28;20033;-83
2023/10/25 04:56:22;;;;;;;6.03;2.65;;;;;;;;;;5037336;28;20131;-84
2023/10/25 04:59:07;;;;;;;7.70;2.45;;;;;;;;;;5034726;28;20040;-85
2023/10/25 05:01:53;;;;;;;5.50;2.67;;;;;;;;;;5035662;28;20032;-84
2023/10/25 05:04:38;;;;;;;2.67;2.38;;;;;;;;;;5036341;28;20120;-83
2023/10/25 05:07:23;;;;;;;6.07;2.78;;;;;;;;;;5047970;28;20039;-85
2023/10/25 05:10:09;;;;;;;6.38;3.08;;;;;;;;;;5043158;28;20040;-85
2023/10/25 05:12:54;;;;;;;4.22;2.40;;;;;;;;;;5049079;28;20086;-83
2023/10/25 05:15:40;;;;;;;3.90;2.80;;;;;;;;;;5044507;28;20087;-84
2023/10/25 05:18:26;;;;;;;5.05;2.42;;;;;;;;;;5039160;28;20013;-82
2023/10/25 05:21:16;;;;;;;5.30;3.05;;;;;;;;;;5036270;28;20104;-84
2023/10/25 05:24:02;;;;;;;3.63;2.30;;;;;;;;;;5046726;28;20428;-84
2023/10/25 05:26:47;;;;;;;4.93;2.78;;;;;;;;;;5044318;28;20032;-83
2023/10/25 05:29:33;;;;;;;4.68;2.65;;;;;;;;;;5047952;28;20028;-83
2023/10/25 05:32:19;;;;;;;4.65;2.67;;;;;;;;;;5041217;28;20048;-83
2023/10/25 05:35:05;;;;;;;3.63;2.47;;;;;;;;;;5037254;28;20024;-85
2023/10/25 05:37:51;;;;;;;4.63;2.83;;;;;;;;;;5044297;28;20386;-83
2023/10/25 05:40:36;;;;;;;6.43;2.97;;;;;;;;;;5043927;28;20096;-85
2023/10/25 05:43:28;;;;;;;3.20;2.35;;;;;;;;;;5039985;28;20025;-87
2023/10/25 05:46:13;;;;;;;6.18;2.80;;;;;;;;;;5035955;28;20033;-85
2023/10/25 05:48:58;;;;;;;5.47;2.42;;;;;;;;;;5035663;28;20423;-85
2023/10/25 05:51:44;;;;;;;7.43;3.50;;;;;;;;;;5048111;28;20032;-86
2023/10/25 05:54:32;;;;;;;7.65;3.58;;;;;;;;;;5035701;28;20051;-86
2023/10/25 05:57:17;;;;;;;5.57;2.60;;;;;;;;;;5036242;28;20539;-85
2023/10/25 06:00:03;;;;;;;4.68;2.70;;;;;;;;;;5035657;28;20028;-85
2023/10/25 06:02:49;;;;;;;6.68;2.88;;;;;;;;;;5035714;28;20033;-85
2023/10/25 06:05:35;;;;;;;3.22;2.17;;;;;;;;;;5038696;28;20028;-86
2023/10/25 06:08:20;;;;;;;4.85;2.75;;;;;;;;;;5040485;28;20029;-84
2023/10/25 06:11:06;;;;;;;4.68;2.92;;;;;;;;;;5037098;28;20075;-84
2023/10/25 06:13:51;;;;;;;9.10;3.60;;;;;;;;;;5041913;28;20742;-84
2023/10/25 06:16:36;;;;;;;5.43;3.05;;;;;;;;;;5046267;28;20111;-85
2023/10/25 06:19:21;;;;;;;6.65;2.92;;;;;;;;;;5046331;28;20032;-85
2023/10/25 06:22:07;;;;;;;9.55;3.03;;;;;;;;;;5038400;28;20395;-85
2023/10/25 06:24:52;;;;;;;5.30;2.60;;;;;;;;;;5040043;28;20141;-85
2023/10/25 06:27:37;;;;;;;6.70;2.90;;;;;;;;;;5042095;28;20044;-86
2023/10/25 06:30:23;;;;;;;3.88;2.72;;;;;;;;;;5039146;28;20104;-84
2023/10/25 06:33:08;;;;;;;6.70;2.88;;;;;;;;;;5038711;28;20045;-85
2023/10/25 06:35:58;;;;;;;3.95;2.60;;;;;;;;;;5044018;28;20115;-85
2023/10/25 06:38:43;;;;;;;5.32;3.00;;;;;;;;;;5043599;28;20419;-86
2023/10/25 06:41:29;;;;;;;3.92;2.80;;;;;;;;;;5040043;28;20028;-86
2023/10/25 06:44:14;;;;;;;5.78;3.33;;;;;;;;;;5041088;28;20051;-88
2023/10/25 06:47:00;;;;;;;6.80;3.60;;;;;;;;;;5039817;28;20115;-87
2023/10/25 06:49:45;;;;;;;7.53;2.92;;;;;;;;;;5038744;28;20043;-90
2023/10/25 06:52:30;;;;;;;6.53;3.03;;;;;;;;;;5045193;28;20081;-85
2023/10/25 06:55:16;;;;;;;11.88;4.07;;;;;;;;;;5039406;28;20036;-85
2023/10/25 06:58:02;;;;;;;6.80;3.33;;;;;;;;;;5039273;28;20421;-89
2023/10/25 07:00:49;;;;;;;5.05;3.28;;;;;;;;;;5042366;28;20036;-84
2023/10/25 07:03:35;;;;;;;8.25;4.53;;;;;;;;;;5039858;28;20025;-84
2023/10/25 07:06:21;;;;;;;6.97;3.35;;;;;;;;;;5044446;28;20364;-85
2023/10/25 07:09:06;;;;;;;6.07;3.45;;;;;;;;;;5043624;28;21054;-84
2023/10/25 07:11:51;;;;;;;5.75;3.55;;;;;;;;;;5044484;28;20494;-84
2023/10/25 07:14:37;;;;;;;9.77;4.80;;;;;;;;;;5038747;28;20086;-85
2023/10/25 07:17:22;;;;;;;7.63;3.58;;;;;;;;;;5042522;28;20501;-83
2023/10/25 07:20:10;;;;;;;5.50;3.67;;;;;;;;;;5041538;28;20417;-83
2023/10/25 07:22:55;;;;;;;7.28;4.50;;;;;;;;;;5038766;28;20028;-83
2023/10/25 07:25:40;;;;;;;5.88;4.05;;;;;;;;;;5042405;28;20041;-83
2023/10/25 07:28:26;;;;;;;6.05;4.22;;;;;;;;;;5036388;28;20032;-83
2023/10/25 07:31:11;;;;;;;8.68;4.70;;;;;;;;;;5037621;28;20067;-86
2023/10/25 07:33:56;;;;;;;9.02;5.03;;;;;;;;;;5043254;28;20254;-83
2023/10/25 07:36:41;;;;;;;8.57;4.43;;;;;;;;;;5041341;28;20039;-83
2023/10/25 07:39:27;;;;;;;5.50;3.67;;;;;;;;;;5036597;28;20032;-83
2023/10/25 07:42:12;;;;;;;6.75;4.18;;;;;;;;;;5037715;28;20499;-83
2023/10/25 07:44:57;;;;;;;6.70;4.60;;;;;;;;;;5041129;28;20415;-83
2023/10/25 07:47:42;;;;;;;6.85;4.63;;;;;;;;;;5037945;28;20039;-84
2023/10/25 07:50:27;;;;;;;6.05;4.45;;;;;;;;;;5040913;28;20475;-84
2023/10/25 07:53:13;;;;;;;7.13;4.28;;;;;;;;;;5043359;28;20064;-84
2023/10/25 07:56:02;;;;;;;5.85;3.78;;;;;;;;;;5040500;28;20016;-83
2023/10/25 07:58:47;;;;;;;11.13;4.78;;;;;;;;;;5045274;28;20222;-84
2023/10/25 08:01:33;;;;;;;8.25;4.82;;;;;;;;;;5051027;28;20062;-91
2023/10/25 08:04:18;;;;;;;5.60;3.92;;;;;;;;;;5041218;28;20032;-84
2023/10/25 08:07:04;;;;;;;9.65;4.45;;;;;;;;;;5037051;28;20024;-86
2023/10/25 08:09:49;;;;;;;8.55;4.93;;;;;;;;;;5039794;28;20035;-84
2023/10/25 08:12:35;;;;;;;8.43;5.00;;;;;;;;;;5040981;28;20025;-84
2023/10/25 08:15:20;;;;;;;7.95;4.53;;;;;;;;;;5044860;28;20029;-85
2023/10/25 08:18:05;;;;;;;7.00;4.68;;;;;;;;;;5049989;28;20039;-85
2023/10/25 08:20:50;;;;;;;7.57;4.78;;;;;;;;;;5040699;28;20037;-86
2023/10/25 08:23:37;;;;;;;8.23;4.75;;;;;;;;;;5041835;28;20036;-87
2023/10/25 08:26:25;;;;;;;7.82;4.20;;;;;;;;;;5037836;28;20036;-84
2023/10/25 08:29:10;;;;;;;6.07;4.45;;;;;;;;;;5034118;28;20060;-85
2023/10/25 08:31:55;;;;;;;9.20;4.47;;;;;;;;;;5036811;28;20603;-89
2023/10/25 08:34:45;;;;;;;9.32;4.60;;;;;;;;;;5042184;28;20025;-88
2023/10/25 08:37:30;;;;;;;5.93;4.15;;;;;;;;;;5039432;28;20413;-87
2023/10/25 08:40:15;;;;;;;7.43;4.70;;;;;;;;;;5034249;28;20041;-86
2023/10/25 08:43:01;;;;;;;6.20;4.18;;;;;;;;;;5040712;28;20033;-87
2023/10/25 08:45:46;;;;;;;7.03;4.65;;;;;;;;;;5039115;28;20041;-87
2023/10/25 08:48:32;;;;;;;10.90;4.35;;;;;;;;;;5032100;28;20024;-87
2023/10/25 08:51:18;;;;;;;5.53;3.67;;;;;;;;;;5042859;28;20052;-87
2023/10/25 08:54:03;;;;;;;5.30;4.20;;;;;;;;;;5042960;28;20368;-88
2023/10/25 08:56:49;;;;;;;9.45;4.57;;;;;;;;;;5047238;28;20124;-88
2023/10/25 08:59:42;;;;;;;6.60;4.40;;;;;;;;;;5048044;28;20036;-87
2023/10/25 09:02:27;;;;;;;8.77;3.97;;;;;;;;;;5051449;28;20021;-88
2023/10/25 09:05:12;;;;;;;7.45;4.78;;;;;;;;;;5040472;28;20027;-85
2023/10/25 09:08:13;;;;;;;6.72;4.47;;;;;;;;;;5041467;28;20033;-87
2023/10/25 09:11:05;;;;;;;5.60;4.18;;;;;;;;;;5046449;28;20025;-89
2023/10/25 09:14:00;;;;;;;6.22;4.15;;;;;;;;;;5050345;28;20028;-89
2023/10/25 09:16:47;;;;;;;6.50;4.32;;;;;;;;;;5043117;28;20021;-87
2023/10/25 09:19:32;;;;;;;7.65;4.07;;;;;;;;;;5041056;28;20036;-88
2023/10/25 09:22:28;;;;;;;6.18;4.20;;;;;;;;;;5046929;28;20033;-87
2023/10/25 09:25:13;;;;;;;7.32;3.97;;;;;;;;;;5042813;28;20033;-86
2023/10/25 09:27:58;;;;;;;6.47;4.28;;;;;;;;;;5046732;28;20395;-86
2023/10/25 09:30:43;;;;;;;4.85;3.58;;;;;;;;;;5048076;28;20027;-86
2023/10/25 09:33:29;;;;;;;7.10;4.47;;;;;;;;;;5042979;28;20041;-85
2023/10/25 09:36:15;;;;;;;8.25;4.05;;;;;;;;;;5044111;28;20588;-86
2023/10/25 09:39:00;;;;;;;7.10;4.40;;;;;;;;;;5040145;28;20463;-85
2023/10/25 09:41:50;;;;;;;6.32;4.28;;;;;;;;;;5042115;28;20478;-85
2023/10/25 09:44:54;;;;;;;7.00;4.90;;;;;;;;;;5047261;28;20339;-82
2023/10/25 09:47:41;;;;;;;13.10;5.18;;;;;;;;;;5042259;28;20636;-79
2023/10/25 09:50:32;;;;;;;6.75;4.80;;;;;;;;;;5042974;28;20117;-80
2023/10/25 09:53:20;;;;;;;11.43;6.32;;;;;;;;;;5040377;28;20119;-81
2023/10/25 09:56:08;;;;;;;11.13;4.82;;;;;;;;;;5046262;28;20029;-85
2023/10/25 09:58:53;;;;;;;11.73;4.70;;;;;;;;;;5051976;28;20434;-85
2023/10/25 10:01:39;;;;;;;8.32;5.15;;;;;;;;;;5042682;28;20033;-85
2023/10/25 10:04:32;;;;;;;7.22;4.40;;;;;;;;;;5046195;28;20017;-87
2023/10/25 10:07:38;;;;;;;7.13;4.40;;;;;;;;;;5036392;28;20016;-84
2023/10/25 10:10:39;;;;;;;6.97;3.88;;;;;;;;;;5046677;28;20258;-84
2023/10/25 10:13:26;;;;;;;6.75;4.05;;;;;;;;;;5042493;28;20028;-84
2023/10/25 10:16:15;;;;;;;6.63;4.43;;;;;;;;;;5041107;28;20029;-84
2023/10/25 10:19:00;;;;;;;14.98;4.90;;;;;;;;;;5043668;28;20421;-84
2023/10/25 10:22:01;;;;;;;13.07;4.25;;;;;;;;;;5037153;28;20103;-85
2023/10/25 10:24:53;;;;;;;6.18;4.32;;;;;;;;;;5046268;28;20049;-85
2023/10/25 10:27:41;;;;;;;5.43;3.58;;;;;;;;;;5051208;28;20139;-85
2023/10/25 10:30:29;;;;;;;7.43;4.10;;;;;;;;;;5038722;28;20391;-85
2023/10/25 10:33:15;;;;;;;9.52;4.00;;;;;;;;;;5044961;28;20059;-91
2023/10/25 10:36:01;;;;;;;6.78;3.95;;;;;;;;;;5044587;28;20615;-88
2023/10/25 10:39:05;;;;;;;5.78;4.03;;;;;;;;;;5047357;28;20102;-89
2023/10/25 10:41:50;;;;;;;3.95;3.25;;;;;;;;;;5043511;28;20119;-88
2023/10/25 10:44:36;;;;;;;7.00;4.25;;;;;;;;;;5047037;28;20429;-88
2023/10/25 10:47:41;;;;;;;5.22;3.67;;;;;;;;;;5048807;28;20008;-86
2023/10/25 10:50:26;;;;;;;6.25;3.40;;;;;;;;;;5038941;28;20033;-86
2023/10/25 10:53:12;;;;;;;8.15;2.97;;;;;;;;;;5044430;28;20025;-88
2023/10/25 10:55:57;;;;;;;5.63;3.25;;;;;;;;;;5050545;28;20047;-88
2023/10/25 10:58:43;;;;;;;5.15;2.80;;;;;;;;;;5045967;28;20108;-89
2023/10/25 11:01:29;;;;;;;3.00;2.47;;;;;;;;;;5052501;28;20047;-91
2023/10/25 11:04:14;;;;;;;6.25;2.22;;;;;;;;;;5046845;28;20069;-87
2023/10/25 11:07:00;;;;;;;3.67;2.25;;;;;;;;;;5047135;28;20037;-88
2023/10/25 11:09:45;;;;;;;4.47;2.47;;;;;;;;;;5036363;28;20029;-87
2023/10/25 11:12:30;;;;;;;3.97;1.95;;;;;;;;;;5055566;28;20029;-89
2023/10/25 11:15:16;;;;;;;1.70;1.55;;;;;;;;;;5066427;28;20013;-88
2023/10/25 11:18:04;;;;;;;4.53;1.70;;;;;;;;;;5073160;28;20534;-89
2023/10/25 11:20:50;;;;;;;7.38;2.10;;;;;;;;;;5063348;28;20039;-91
2023/10/25 11:23:35;;;;;;;2.63;1.55;;;;;;;;;;5063140;28;20029;-86
2023/10/25 11:26:20;;;;;;;3.00;1.83;;;;;;;;;;5049269;28;20052;-89
2023/10/25 11:29:06;;;;;;;2.10;1.40;;;;;;;;;;5035545;28;20028;-89
2023/10/25 11:31:55;;;;;;;1.50;1.40;;;;;;;;;;5040147;28;20053;-90
2023/10/25 11:34:43;;;;;;;1.97;1.60;;;;;;;;;;5046592;28;20032;-85
2023/10/25 11:37:42;;;;;;;4.27;1.70;;;;;;;;;;5048159;28;20234;-91
2023/10/25 11:40:35;;;;;;;4.45;1.75;;;;;;;;;;5053418;28;20055;-85
2023/10/25 11:43:20;;;;;;;4.18;1.63;;;;;;;;;;5046139;28;20035;-87
2023/10/25 11:46:06;;;;;;;2.95;1.63;;;;;;;;;;5040748;28;20144;-87
2023/10/25 11:48:51;;;;;;;1.55;1.40;;;;;;;;;;5046008;28;20085;-86
2023/10/25 11:51:36;;;;;;;3.35;1.38;;;;;;;;;;5045401;28;20025;-86
2023/10/25 11:54:22;;;;;;;2.15;1.30;;;;;;;;;;5038129;28;20036;-89
2023/10/25 11:57:07;;;;;;;3.30;1.20;;;;;;;;;;5041136;28;20123;-89
2023/10/25 11:59:55;;;;;;;1.70;1.27;;;;;;;;;;5038362;28;20051;-90
2023/10/25 12:02:41;;;;;;;2.47;1.30;;;;;;;;;;5055179;28;20021;-88
2023/10/25 12:05:26;;;;;;;1.48;1.05;;;;;;;;;;5041882;28;20028;-90
2023/10/25 12:08:15;;;;;;;3.03;1.23;;;;;;;;;;5045833;28;20483;-90
2023/10/25 12:11:00;;;;;;;3.42;1.50;;;;;;;;;;5037922;28;20121;-88
2023/10/25 12:13:48;;;;;;;2.15;1.10;;;;;;;;;;5034108;28;20021;-91
2023/10/25 12:16:33;;;;;;;2.17;1.33;;;;;;;;;;5043268;28;20534;-90
2023/10/25 12:19:19;;;;;;;1.73;1.52;;;;;;;;;;5039470;28;20056;-89
2023/10/25 12:22:08;;;;;;;3.20;1.20;;;;;;;;;;5036543;28;20497;-88
2023/10/25 12:24:53;;;;;;;3.50;1.10;;;;;;;;;;5040086;28;20076;-88
2023/10/25 12:27:38;;;;;;;1.98;1.20;;;;;;;;;;5045476;28;20086;-91
2023/10/25 12:30:26;;;;;;;2.05;1.10;;;;;;;;;;5045834;28;20107;-85
2023/10/25 12:33:12;;;;;;;1.08;1.00;;;;;;;;;;5047303;28;20135;-91
2023/10/25 12:35:57;;;;;;;1.92;1.20;;;;;;;;;;5042697;28;20691;-87
2023/10/25 12:38:44;;;;;;;4.10;1.10;;;;;;;;;;5025063;28;20025;-89
2023/10/25 12:41:35;;;;;;;2.10;1.15;;;;;;;;;;5031783;28;20025;-86
2023/10/25 12:44:20;;;;;;;3.05;1.20;;;;;;;;;;5047251;28;20021;-87
2023/10/25 12:47:06;;;;;;;1.45;1.13;;;;;;;;;;5055458;28;20039;-88
2023/10/25 12:49:52;;;;;;;1.70;0.95;;;;;;;;;;5051068;28;20153;-86
2023/10/25 12:52:37;;;;;;;1.85;1.10;;;;;;;;;;5048402;28;20092;-85
2023/10/25 12:55:23;;;;;;;2.50;1.17;;;;;;;;;;5047109;28;20052;-85
2023/10/25 12:58:08;;;;;;;1.92;1.23;;;;;;;;;;5044305;28;20033;-85
2023/10/25 13:00:54;;;;;;;1.90;0.90;;;;;;;;;;5029342;28;20466;-88
2023/10/25 13:03:40;;;;;;;2.47;1.23;;;;;;;;;;5030885;28;20039;-89
2023/10/25 13:06:26;;;;;;;1.23;0.90;;;;;;;;;;5041876;28;20025;-86
2023/10/25 13:09:12;;;;;;;7.68;1.60;;;;;;;;;;5041100;28;20029;-84
2023/10/25 13:11:57;;;;;;;3.95;1.00;;;;;;;;;;5042812;28;20438;-82
2023/10/25 13:14:42;;;;;;;3.15;1.33;;;;;;;;;;5044933;28;20112;-86
2023/10/25 13:17:27;;;;;;;1.58;1.20;;;;;;;;;;5039724;28;20021;-84
2023/10/25 13:20:15;;;;;;;4.05;1.13;;;;;;;;;;5041703;28;20045;-84
2023/10/25 13:23:00;;;;;;;4.00;1.00;;;;;;;;;;5039682;28;20020;-87
2023/10/25 13:25:45;;;;;;;2.70;1.10;;;;;;;;;;5037548;28;20502;-85
2023/10/25 13:28:30;;;;;;;1.02;0.82;;;;;;;;;;5038968;28;20144;-85
2023/10/25 13:31:16;;;;;;;2.50;1.48;;;;;;;;;;5039802;28;20033;-86
2023/10/25 13:34:01;;;;;;;6.80;1.52;;;;;;;;;;5044276;28;20395;-87
2023/10/25 13:36:46;;;;;;;1.88;0.80;;;;;;;;;;5045591;28;20035;-86
2023/10/25 13:39:32;;;;;;;2.25;1.40;;;;;;;;;;5045867;28;20032;-88
2023/10/25 13:42:17;;;;;;;2.47;0.90;;;;;;;;;;5034347;28;20037;-86
2023/10/25 13:45:04;;;;;;;1.35;0.90;;;;;;;;;;5042848;28;20082;-86
2023/10/25 13:47:49;;;;;;;1.73;1.10;;;;;;;;;;5044885;28;20352;-90
2023/10/25 13:50:34;;;;;;;3.55;1.30;;;;;;;;;;5043635;28;20032;-84
2023/10/25 13:53:20;;;;;;;1.92;1.00;;;;;;;;;;5044109;28;20757;-86
2023/10/25 13:56:05;;;;;;;3.50;1.15;;;;;;;;;;5040925;28;20055;-83
2023/10/25 13:58:50;;;;;;;6.88;1.98;;;;;;;;;;5046257;28;20024;-90
2023/10/25 14:01:35;;;;;;;5.45;1.20;;;;;;;;;;5050040;28;20060;-85
2023/10/25 14:04:21;;;;;;;2.53;1.10;;;;;;;;;;5046166;28;20029;-85
2023/10/25 14:07:06;;;;;;;1.02;0.90;;;;;;;;;;5030720;28;20028;-85
2023/10/25 14:09:51;;;;;;;5.00;1.10;;;;;;;;;;5044027;28;20453;-89
2023/10/25 14:12:36;;;;;;;3.35;1.00;;;;;;;;;;5043409;28;20097;-86
2023/10/25 14:15:21;;;;;;;1.13;0.70;;;;;;;;;;5045531;28;20098;-85
2023/10/25 14:18:13;;;;;;;1.30;0.85;;;;;;;;;;5034219;28;20033;-85
2023/10/25 14:21:01;;;;;;;1.60;0.90;;;;;;;;;;5012046;28;20060;-85
2023/10/25 14:23:46;;;;;;;1.58;0.93;;;;;;;;;;5040852;28;20059;-87
2023/10/25 14:26:33;;;;;;;2.80;0.93;;;;;;;;;;5043975;28;20040;-85
2023/10/25 14:29:18;;;;;;;1.77;1.05;;;;;;;;;;5045326;28;20032;-89
2023/10/25 14:32:04;;;;;;;2.03;1.10;;;;;;;;;;5048137;28;20047;-87
2023/10/25 14:34:50;;;;;;;2.08;0.90;;;;;;;;;;5041466;28;20028;-86
2023/10/25 14:37:35;;;;;;;1.10;1.00;;;;;;;;;;5040867;28;20502;-87
2023/10/25 14:40:20;;;;;;;3.10;1.30;;;;;;;;;;5044858;28;20028;-87
2023/10/25 14:43:05;;;;;;;2.90;1.00;;;;;;;;;;5044438;28;20025;-87
2023/10/25 14:45:53;;;;;;;1.25;1.00;;;;;;;;;;5049133;28;20064;-86
2023/10/25 14:48:38;;;;;;;2.22;1.15;;;;;;;;;;5036053;28;20132;-87
2023/10/25 14:51:27;;;;;;;2.15;1.13;;;;;;;;;;5044699;28;20096;-85
2023/10/25 14:54:13;;;;;;;2.38;1.20;;;;;;;;;;5044260;28;20125;-85
2023/10/25 14:56:59;;;;;;;0.80;0.80;;;;;;;;;;5039448;28;20495;-85
2023/10/25 14:59:44;;;;;;;1.77;1.25;;;;;;;;;;5043128;28;20044;-87
2023/10/25 15:02:29;;;;;;;2.45;1.20;;;;;;;;;;5037213;28;20553;-86
2023/10/25 15:05:17;;;;;;;2.10;1.10;;;;;;;;;;5039511;28;20472;-87
2023/10/25 15:08:05;;;;;;;1.65;1.10;;;;;;;;;;5039264;28;20017;-86
2023/10/25 15:10:50;;;;;;;3.28;0.88;;;;;;;;;;5040078;28;20061;-85
2023/10/25 15:13:36;;;;;;;1.45;0.82;;;;;;;;;;5031311;28;20051;-86
2023/10/25 15:16:21;;;;;;;1.95;0.90;;;;;;;;;;5040466;28;20021;-87
2023/10/25 15:19:06;;;;;;;1.88;1.10;;;;;;;;;;5042817;28;20025;-82
2023/10/25 15:21:52;;;;;;;4.72;1.05;;;;;;;;;;5049774;28;20040;-88
2023/10/25 15:24:37;;;;;;;1.83;1.20;;;;;;;;;;5023960;28;20028;-88
2023/10/25 15:27:23;;;;;;;1.50;0.88;;;;;;;;;;5041888;28;20029;-92
2023/10/25 15:30:11;;;;;;;2.40;1.10;;;;;;;;;;5043510;28;20103;-91
2023/10/25 15:32:56;;;;;;;2.40;1.23;;;;;;;;;;5053733;28;20406;-93
2023/10/25 15:35:42;;;;;;;2.78;1.08;;;;;;;;;;5049478;28;20028;-94
2023/10/25 15:38:28;;;;;;;3.80;1.58;;;;;;;;;;5048517;28;20033;-91
2023/10/25 15:41:22;;;;;;;6.07;1.55;;;;;;;;;;5042051;28;20048;-91
2023/10/25 15:44:08;;;;;;;2.55;1.42;;;;;;;;;;5055068;28;20433;-91
2023/10/25 15:46:53;;;;;;;1.50;1.20;;;;;;;;;;5046264;28;20029;-89
2023/10/25 15:49:38;;;;;;;2.05;1.15;;;;;;;;;;5042744;28;20027;-87
2023/10/25 15:52:23;;;;;;;2.15;1.13;;;;;;;;;;5028749;28;20040;-90
2023/10/25 15:55:09;;;;;;;3.30;1.10;;;;;;;;;;5043485;28;20021;-91
2023/10/25 15:57:54;;;;;;;3.22;1.35;;;;;;;;;;5045234;28;20363;-86
2023/10/25 16:00:39;;;;;;;2.00;0.93;;;;;;;;;;5047323;28;20100;-89
2023/10/25 16:03:25;;;;;;;2.55;1.13;;;;;;;;;;5041716;28;20032;-91
2023/10/25 16:06:10;;;;;;;1.48;0.93;;;;;;;;;;5049837;28;20032;-85
2023/10/25 16:08:56;;;;;;;4.43;1.40;;;;;;;;;;5044447;28;20061;-83
2023/10/25 16:11:41;;;;;;;1.48;1.00;;;;;;;;;;5048211;28;20043;-85
2023/10/25 16:14:26;;;;;;;1.58;1.10;;;;;;;;;;5045375;28;20048;-86
2023/10/25 16:17:12;;;;;;;3.92;1.30;;;;;;;;;;5042323;28;20037;-85
2023/10/25 16:19:57;;;;;;;3.60;1.23;;;;;;;;;;5046814;28;20055;-84
2023/10/25 16:22:45;;;;;;;2.28;1.00;;;;;;;;;;5051025;28;20111;-85
2023/10/25 16:25:35;;;;;;;3.45;1.65;;;;;;;;;;5039341;28;20033;-85
2023/10/25 16:28:20;;;;;;;1.27;1.08;;;;;;;;;;5049548;28;20104;-85
2023/10/25 16:31:08;;;;;;;3.08;1.35;;;;;;;;;;5036532;28;20052;-86
2023/10/25 16:33:54;;;;;;;7.60;2.33;;;;;;;;;;5042344;28;20044;-85
2023/10/25 16:36:39;;;;;;;3.38;1.48;;;;;;;;;;5046257;28;20032;-86